createdAt,value
2017-08-12T00:01:49.507Z,13.40
2017-08-12T00:04:17.838Z,13.40
2017-08-12T00:06:46.153Z,13.40
2017-08-12T00:09:14.459Z,13.40
2017-08-12T00:11:42.790Z,13.40
2017-08-12T00:14:11.111Z,13.40
2017-08-12T00:16:39.419Z,13.40
2017-08-12T00:19:07.755Z,13.40
2017-08-12T00:21:36.071Z,13.50
2017-08-12T00:24:05.500Z,13.50
2017-08-12T00:26:34.578Z,13.50
2017-08-12T00:29:02.868Z,13.40
2017-08-12T00:31:32.035Z,13.50
2017-08-12T00:34:01.142Z,13.50
2017-08-12T00:36:29.452Z,13.40
2017-08-12T00:38:57.795Z,13.40
2017-08-12T00:41:26.914Z,13.30
2017-08-12T00:43:55.983Z,13.30
2017-08-12T00:46:24.298Z,13.20
2017-08-12T00:48:52.615Z,13.30
2017-08-12T00:51:20.962Z,13.20
2017-08-12T00:53:49.286Z,13.20
2017-08-12T00:56:18.408Z,13.10
2017-08-12T00:58:47.507Z,13.10
2017-08-12T01:01:16.566Z,13.10
2017-08-12T01:03:45.471Z,13.10
2017-08-12T01:06:14.556Z,13.10
2017-08-12T01:08:42.910Z,13.00
2017-08-12T01:11:11.223Z,13.00
2017-08-12T01:13:40.338Z,13.00
2017-08-12T01:16:08.654Z,13.00
2017-08-12T01:18:37.503Z,13.00
2017-08-12T01:21:06.563Z,13.00
2017-08-12T01:23:35.668Z,13.00
2017-08-12T01:26:03.999Z,12.90
2017-08-12T01:28:32.312Z,12.90
2017-08-12T01:31:00.632Z,12.90
2017-08-12T01:33:28.947Z,12.90
2017-08-12T01:35:57.283Z,12.90
2017-08-12T01:38:25.592Z,13.00
2017-08-12T01:40:53.918Z,13.00
2017-08-12T01:43:22.240Z,13.00
2017-08-12T01:45:50.584Z,13.00
2017-08-12T01:48:18.939Z,13.00
2017-08-12T01:50:48.052Z,13.00
2017-08-12T01:53:16.349Z,12.90
2017-08-12T01:55:44.792Z,13.00
2017-08-12T01:58:13.869Z,13.00
2017-08-12T02:00:42.188Z,12.90
2017-08-12T02:03:10.522Z,13.00
2017-08-12T02:05:38.838Z,13.00
2017-08-12T02:08:07.166Z,13.00
2017-08-12T02:10:35.462Z,12.90
2017-08-12T02:13:04.569Z,12.90
2017-08-12T02:15:32.871Z,12.90
2017-08-12T02:18:01.240Z,12.90
2017-08-12T02:20:30.311Z,12.90
2017-08-12T02:22:58.812Z,12.90
2017-08-12T02:25:27.122Z,12.90
2017-08-12T02:27:55.431Z,13.00
2017-08-12T02:30:23.772Z,12.90
2017-08-12T02:32:52.076Z,13.00
2017-08-12T02:35:20.417Z,13.00
2017-08-12T02:37:48.725Z,13.00
2017-08-12T02:40:17.063Z,13.00
2017-08-12T02:42:45.374Z,12.90
2017-08-12T02:45:13.723Z,12.90
2017-08-12T02:47:42.019Z,12.90
2017-08-12T02:50:10.348Z,12.90
2017-08-12T02:52:38.652Z,12.80
2017-08-12T02:55:06.999Z,12.80
2017-08-12T02:57:36.076Z,12.80
2017-08-12T03:00:04.651Z,12.70
2017-08-12T03:02:32.954Z,12.80
2017-08-12T03:05:02.011Z,12.80
2017-08-12T03:07:30.330Z,12.70
2017-08-12T03:09:58.650Z,12.80
2017-08-12T03:12:26.999Z,12.80
2017-08-12T03:14:55.302Z,12.80
2017-08-12T03:17:23.620Z,12.80
2017-08-12T03:19:51.912Z,12.80
2017-08-12T03:22:20.242Z,12.90
2017-08-12T03:24:48.568Z,12.90
2017-08-12T03:27:16.874Z,12.90
2017-08-12T03:29:45.195Z,12.90
2017-08-12T03:32:13.503Z,12.80
2017-08-12T03:34:42.577Z,12.90
2017-08-12T03:37:10.916Z,12.80
2017-08-12T03:39:39.235Z,12.90
2017-08-12T03:42:08.308Z,12.90
2017-08-12T03:44:36.643Z,12.90
2017-08-12T03:47:04.995Z,13.00
2017-08-12T03:49:33.539Z,13.00
2017-08-12T03:52:01.887Z,13.00
2017-08-12T03:54:30.167Z,13.00
2017-08-12T03:56:58.478Z,13.00
2017-08-12T03:59:27.573Z,13.00
2017-08-12T04:01:55.919Z,13.00
2017-08-12T04:04:24.250Z,13.00
2017-08-12T04:06:53.377Z,13.10
2017-08-12T04:09:21.705Z,13.00
2017-08-12T04:11:50.018Z,13.10
2017-08-12T04:14:18.326Z,13.10
2017-08-12T04:16:46.670Z,13.20
2017-08-12T04:19:14.983Z,13.20
2017-08-12T04:21:43.426Z,13.30
2017-08-12T04:24:11.739Z,13.30
2017-08-12T04:26:40.025Z,13.30
2017-08-12T04:29:08.356Z,13.20
2017-08-12T04:31:37.405Z,13.20
2017-08-12T04:34:05.739Z,13.20
2017-08-12T04:36:34.028Z,13.30
2017-08-12T04:39:02.364Z,13.20
2017-08-12T04:41:30.672Z,13.30
2017-08-12T04:43:59.009Z,13.20
2017-08-12T04:46:27.302Z,13.30
2017-08-12T04:48:56.370Z,13.40
2017-08-12T04:51:25.454Z,13.30
2017-08-12T04:53:54.745Z,13.30
2017-08-12T04:56:23.067Z,13.30
2017-08-12T04:58:51.384Z,13.40
2017-08-12T05:01:19.728Z,13.40
2017-08-12T05:03:48.030Z,13.50
2017-08-12T05:06:16.383Z,13.60
2017-08-12T05:08:44.717Z,13.60
2017-08-12T05:11:13.037Z,13.70
2017-08-12T05:13:41.351Z,13.80
2017-08-12T05:16:09.975Z,13.70
2017-08-12T05:18:39.022Z,13.60
2017-08-12T05:21:07.330Z,13.50
2017-08-12T05:23:36.439Z,13.50
2017-08-12T05:26:04.774Z,13.50
2017-08-12T05:28:33.111Z,13.50
2017-08-12T05:31:01.419Z,13.50
2017-08-12T05:33:29.757Z,13.60
2017-08-12T05:35:58.139Z,13.60
2017-08-12T05:38:26.468Z,13.70
2017-08-12T05:40:55.559Z,13.70
2017-08-12T05:43:23.888Z,13.70
2017-08-12T05:45:52.955Z,13.80
2017-08-12T05:48:22.374Z,13.90
2017-08-12T05:50:51.476Z,14.00
2017-08-12T05:53:19.798Z,13.90
2017-08-12T05:55:48.107Z,14.10
2017-08-12T05:58:16.387Z,14.10
2017-08-12T06:00:44.698Z,14.10
2017-08-12T06:03:12.998Z,14.10
2017-08-12T06:05:41.478Z,14.10
2017-08-12T06:08:09.779Z,14.10
2017-08-12T06:10:38.071Z,14.10
2017-08-12T06:13:07.167Z,14.10
2017-08-12T06:15:36.231Z,14.00
2017-08-12T06:18:04.662Z,14.00
2017-08-12T06:20:33.730Z,14.00
2017-08-12T06:23:02.355Z,14.00
2017-08-12T06:25:31.432Z,14.10
2017-08-12T06:27:59.910Z,14.10
2017-08-12T06:30:28.966Z,14.20
2017-08-12T06:32:57.283Z,14.20
2017-08-12T06:35:26.369Z,14.30
2017-08-12T06:37:54.755Z,14.30
2017-08-12T06:40:23.052Z,14.50
2017-08-12T06:42:51.383Z,14.60
2017-08-12T06:45:20.544Z,14.80
2017-08-12T06:47:48.859Z,14.70
2017-08-12T06:50:17.231Z,14.90
2017-08-12T06:52:46.319Z,15.00
2017-08-12T06:55:14.777Z,15.00
2017-08-12T06:57:43.091Z,15.10
2017-08-12T07:00:11.434Z,15.20
2017-08-12T07:02:39.782Z,15.20
2017-08-12T07:05:08.082Z,15.30
2017-08-12T07:07:36.406Z,15.40
2017-08-12T07:10:05.457Z,15.40
2017-08-12T07:12:33.820Z,15.40
2017-08-12T07:15:02.142Z,15.50
2017-08-12T07:17:30.462Z,15.50
2017-08-12T07:19:58.763Z,15.60
2017-08-12T07:22:27.212Z,15.70
2017-08-12T07:24:55.547Z,15.80
2017-08-12T07:27:24.631Z,15.90
2017-08-12T07:29:52.954Z,15.80
2017-08-12T07:32:21.294Z,16.10
2017-08-12T07:34:49.607Z,16.20
2017-08-12T07:37:17.902Z,16.30
2017-08-12T07:39:46.254Z,16.50
2017-08-12T07:42:14.554Z,16.70
2017-08-12T07:44:43.302Z,16.70
2017-08-12T07:47:12.380Z,16.70
2017-08-12T07:49:40.716Z,16.60
2017-08-12T07:52:08.984Z,16.50
2017-08-12T07:54:37.423Z,16.50
2017-08-12T07:57:06.492Z,16.80
2017-08-12T07:59:34.798Z,16.70
2017-08-12T08:02:03.902Z,17.00
2017-08-12T08:04:32.967Z,17.00
2017-08-12T08:07:01.310Z,17.00
2017-08-12T08:09:30.439Z,17.20
2017-08-12T08:11:58.772Z,17.30
2017-08-12T08:14:27.074Z,17.30
2017-08-12T08:16:55.602Z,17.30
2017-08-12T08:19:23.943Z,17.40
2017-08-12T08:21:52.256Z,17.40
2017-08-12T08:24:20.594Z,17.40
2017-08-12T08:26:48.918Z,17.40
2017-08-12T08:29:17.251Z,17.50
2017-08-12T08:31:45.594Z,17.60
2017-08-12T08:34:13.913Z,17.60
2017-08-12T08:36:42.224Z,17.50
2017-08-12T08:39:10.580Z,17.40
2017-08-12T08:44:08.805Z,17.40
2017-08-12T08:46:37.122Z,17.70
2017-08-12T08:49:05.434Z,17.90
2017-08-12T08:51:33.766Z,18.20
2017-08-12T08:54:02.083Z,18.50
2017-08-12T08:56:30.437Z,18.50
2017-08-12T08:58:58.766Z,18.30
2017-08-12T09:01:27.093Z,18.30
2017-08-12T09:03:56.558Z,18.30
2017-08-12T09:06:24.913Z,18.30
2017-08-12T09:08:53.227Z,18.60
2017-08-12T09:11:21.948Z,18.70
2017-08-12T09:13:50.238Z,18.90
2017-08-12T09:16:18.632Z,19.00
2017-08-12T09:18:47.787Z,19.20
2017-08-12T09:21:16.100Z,19.20
2017-08-12T09:23:44.735Z,19.10
2017-08-12T09:26:13.030Z,19.10
2017-08-12T09:28:42.159Z,19.20
2017-08-12T09:31:10.475Z,19.10
2017-08-12T09:33:38.816Z,19.20
2017-08-12T09:36:07.121Z,19.10
2017-08-12T09:38:35.438Z,19.10
2017-08-12T09:41:03.776Z,19.10
2017-08-12T09:43:32.079Z,19.10
2017-08-12T09:46:00.396Z,19.20
2017-08-12T09:48:28.719Z,19.20
2017-08-12T09:50:57.065Z,19.40
2017-08-12T09:53:25.375Z,19.30
2017-08-12T09:55:53.722Z,19.10
2017-08-12T09:58:22.035Z,18.90
2017-08-12T10:00:50.390Z,18.80
2017-08-12T10:03:18.674Z,18.80
2017-08-12T10:05:47.116Z,18.70
2017-08-12T10:08:15.439Z,18.50
2017-08-12T10:10:43.731Z,18.30
2017-08-12T10:13:12.052Z,18.20
2017-08-12T10:15:40.622Z,18.20
2017-08-12T10:18:09.204Z,18.20
2017-08-12T10:20:37.547Z,18.30
2017-08-12T10:23:05.868Z,18.50
2017-08-12T10:25:34.207Z,18.40
2017-08-12T10:28:03.299Z,18.70
2017-08-12T10:30:31.637Z,18.70
2017-08-12T10:32:59.951Z,18.70
2017-08-12T10:35:28.299Z,18.90
2017-08-12T10:37:56.626Z,19.10
2017-08-12T10:40:25.043Z,19.10
2017-08-12T10:42:53.358Z,19.20
2017-08-12T10:45:21.660Z,19.50
2017-08-12T10:47:50.016Z,19.70
2017-08-12T10:50:19.107Z,19.40
2017-08-12T10:52:48.237Z,19.30
2017-08-12T10:55:16.567Z,19.20
2017-08-12T10:57:44.920Z,19.20
2017-08-12T11:00:13.284Z,19.10
2017-08-12T11:02:41.688Z,19.20
2017-08-12T11:05:10.023Z,19.30
2017-08-12T11:07:38.340Z,19.40
2017-08-12T11:10:06.672Z,19.70
2017-08-12T11:12:35.791Z,20.20
2017-08-12T11:15:04.100Z,20.10
2017-08-12T11:17:32.404Z,20.40
2017-08-12T11:20:01.506Z,20.70
2017-08-12T11:22:29.841Z,20.70
2017-08-12T11:24:58.147Z,21.00
2017-08-12T11:27:26.465Z,21.20
2017-08-12T11:29:54.802Z,21.40
2017-08-12T11:32:23.102Z,21.50
2017-08-12T11:34:51.448Z,21.40
2017-08-12T11:37:19.786Z,21.40
2017-08-12T11:39:48.135Z,21.10
2017-08-12T11:42:16.461Z,20.90
2017-08-12T11:44:44.754Z,20.50
2017-08-12T11:47:13.134Z,20.40
2017-08-12T11:49:41.443Z,20.40
2017-08-12T11:52:10.077Z,20.40
2017-08-12T11:54:38.796Z,20.60
2017-08-12T11:57:07.112Z,20.80
2017-08-12T11:59:35.419Z,20.70
2017-08-12T12:02:03.782Z,20.80
2017-08-12T12:04:32.134Z,20.80
2017-08-12T12:07:00.451Z,21.10
2017-08-12T12:09:29.058Z,21.00
2017-08-12T12:11:57.375Z,20.70
2017-08-12T12:14:25.682Z,20.50
2017-08-12T12:16:54.027Z,20.40
2017-08-12T12:19:22.395Z,20.40
2017-08-12T12:21:50.710Z,20.30
2017-08-12T12:24:19.065Z,20.50
2017-08-12T12:26:47.373Z,20.50
2017-08-12T12:29:15.673Z,20.50
2017-08-12T12:31:44.005Z,20.60
2017-08-12T12:34:12.353Z,20.50
2017-08-12T12:36:40.729Z,20.40
2017-08-12T12:39:09.782Z,20.30
2017-08-12T12:41:38.119Z,20.20
2017-08-12T12:44:06.467Z,20.20
2017-08-12T12:46:34.790Z,20.20
2017-08-12T12:49:03.136Z,20.10
2017-08-12T12:51:31.482Z,20.20
2017-08-12T12:53:59.787Z,20.30
2017-08-12T12:56:28.887Z,20.50
2017-08-12T12:58:57.221Z,20.40
2017-08-12T13:01:25.506Z,20.60
2017-08-12T13:03:53.838Z,20.40
2017-08-12T13:06:22.148Z,20.20
2017-08-12T13:08:50.492Z,20.00
2017-08-12T13:11:18.778Z,20.00
2017-08-12T13:13:47.074Z,19.90
2017-08-12T13:16:15.403Z,19.80
2017-08-12T13:18:43.771Z,19.70
2017-08-12T13:21:12.822Z,19.80
2017-08-12T13:23:41.175Z,19.70
2017-08-12T13:26:09.502Z,19.80
2017-08-12T13:28:37.783Z,19.70
2017-08-12T13:31:06.894Z,19.90
2017-08-12T13:33:35.190Z,19.80
2017-08-12T13:36:03.486Z,19.70
2017-08-12T13:38:31.852Z,19.50
2017-08-12T13:41:00.174Z,19.40
2017-08-12T13:43:28.441Z,19.10
2017-08-12T13:45:56.766Z,18.90
2017-08-12T13:48:25.074Z,18.80
2017-08-12T13:50:53.373Z,18.80
2017-08-12T13:53:21.717Z,18.90
2017-08-12T13:55:50.004Z,18.90
2017-08-12T13:58:18.321Z,18.90
2017-08-12T14:00:47.406Z,18.70
2017-08-12T14:03:16.518Z,18.70
2017-08-12T14:05:44.814Z,18.60
2017-08-12T14:08:13.146Z,18.60
2017-08-12T14:10:41.473Z,18.50
2017-08-12T14:13:09.778Z,18.40
2017-08-12T14:15:38.066Z,18.40
2017-08-12T14:18:06.399Z,18.40
2017-08-12T14:20:34.718Z,18.40
2017-08-12T14:23:03.018Z,18.50
2017-08-12T14:25:32.148Z,18.60
2017-08-12T14:28:00.443Z,18.60
2017-08-12T14:30:28.742Z,18.60
2017-08-12T14:32:57.055Z,18.60
2017-08-12T14:35:26.102Z,18.70
2017-08-12T14:37:54.474Z,18.60
2017-08-12T14:40:22.782Z,18.80
2017-08-12T14:42:51.126Z,18.80
2017-08-12T14:45:19.495Z,18.70
2017-08-12T14:47:47.792Z,18.60
2017-08-12T14:50:16.091Z,18.40
2017-08-12T14:52:45.195Z,18.30
2017-08-12T14:55:14.311Z,18.30
2017-08-12T14:57:42.662Z,18.20
2017-08-12T15:00:10.954Z,18.40
2017-08-12T15:02:39.269Z,18.30
2017-08-12T15:05:07.601Z,18.30
2017-08-12T15:07:36.710Z,18.20
2017-08-12T15:10:05.062Z,18.10
2017-08-12T15:12:33.410Z,18.10
2017-08-12T15:15:01.704Z,18.30
2017-08-12T15:17:29.998Z,18.40
2017-08-12T15:19:59.110Z,18.70
2017-08-12T15:22:27.385Z,18.60
2017-08-12T15:24:56.467Z,19.00
2017-08-12T15:27:24.742Z,19.00
2017-08-12T15:32:22.206Z,19.10
2017-08-12T15:34:50.475Z,19.10
2017-08-12T15:37:19.555Z,18.70
2017-08-12T15:39:47.876Z,18.70
2017-08-12T15:42:16.162Z,18.70
2017-08-12T15:44:44.501Z,18.70
2017-08-12T15:47:12.791Z,18.70
2017-08-12T15:49:41.903Z,18.50
2017-08-12T15:52:10.195Z,18.40
2017-08-12T15:54:38.491Z,18.40
2017-08-12T15:57:06.814Z,18.40
2017-08-12T15:59:35.882Z,18.20
2017-08-12T16:02:04.172Z,18.20
2017-08-12T16:04:33.284Z,18.20
2017-08-12T16:07:01.586Z,18.20
2017-08-12T16:09:29.950Z,18.20
2017-08-12T16:11:58.299Z,18.20
2017-08-12T16:14:26.593Z,18.30
2017-08-12T16:16:54.960Z,18.40
2017-08-12T16:19:24.022Z,18.70
2017-08-12T16:21:52.503Z,18.70
2017-08-12T16:24:21.607Z,18.80
2017-08-12T16:26:49.913Z,18.80
2017-08-12T16:29:19.119Z,18.90
2017-08-12T16:31:47.379Z,18.80
2017-08-12T16:34:15.741Z,18.90
2017-08-12T16:36:44.051Z,19.00
2017-08-12T16:39:12.343Z,19.50
2017-08-12T16:41:40.710Z,19.50
2017-08-12T16:44:09.010Z,20.70
2017-08-12T16:46:37.347Z,21.60
2017-08-12T16:49:05.700Z,21.70
2017-08-12T16:51:34.792Z,21.50
2017-08-12T16:54:03.124Z,21.40
2017-08-12T16:56:31.432Z,21.30
2017-08-12T16:59:00.596Z,21.20
2017-08-12T17:01:28.936Z,21.10
2017-08-12T17:03:57.274Z,21.10
2017-08-12T17:06:25.635Z,21.00
2017-08-12T17:08:53.934Z,20.80
2017-08-12T17:11:22.364Z,20.70
2017-08-12T17:13:51.444Z,20.40
2017-08-12T17:16:19.787Z,20.40
2017-08-12T17:18:48.100Z,20.10
2017-08-12T17:21:17.163Z,19.80
2017-08-12T17:23:45.507Z,19.80
2017-08-12T17:26:13.842Z,19.70
2017-08-12T17:28:42.906Z,19.40
2017-08-12T17:31:11.186Z,19.30
2017-08-12T17:33:39.523Z,19.20
2017-08-12T17:36:07.834Z,19.10
2017-08-12T17:38:36.189Z,19.10
2017-08-12T17:41:04.568Z,19.10
2017-08-12T17:43:32.887Z,19.00
2017-08-12T17:46:02.050Z,19.10
2017-08-12T17:48:30.354Z,19.00
2017-08-12T17:50:59.449Z,19.20
2017-08-12T17:53:27.791Z,19.10
2017-08-12T17:55:56.107Z,19.10
2017-08-12T17:58:24.469Z,19.10
2017-08-12T18:00:52.754Z,19.00
2017-08-12T18:03:21.093Z,18.80
2017-08-12T18:05:49.444Z,18.60
2017-08-12T18:08:18.543Z,18.20
2017-08-12T18:10:46.851Z,18.10
2017-08-12T18:13:15.154Z,18.10
2017-08-12T18:15:43.467Z,18.20
2017-08-12T18:18:11.757Z,18.20
2017-08-12T18:20:40.077Z,18.20
2017-08-12T18:23:08.374Z,18.10
2017-08-12T18:25:37.479Z,18.00
2017-08-12T18:28:06.601Z,17.90
2017-08-12T18:30:34.966Z,17.90
2017-08-12T18:33:03.259Z,17.90
2017-08-12T18:35:31.584Z,17.90
2017-08-12T18:38:00.711Z,17.90
2017-08-12T18:40:29.038Z,17.80
2017-08-12T18:42:57.307Z,17.80
2017-08-12T18:45:25.663Z,17.80
2017-08-12T18:47:53.978Z,17.70
2017-08-12T18:50:22.348Z,17.60
2017-08-12T18:52:50.709Z,17.60
2017-08-12T18:55:18.995Z,17.60
2017-08-12T18:57:47.311Z,17.60
2017-08-12T19:00:16.413Z,17.40
2017-08-12T19:02:45.475Z,17.40
2017-08-12T19:05:13.836Z,17.30
2017-08-12T19:07:42.144Z,17.30
2017-08-12T19:10:10.463Z,17.20
2017-08-12T19:12:38.818Z,17.10
2017-08-12T19:15:07.096Z,17.00
2017-08-12T19:17:36.150Z,16.90
2017-08-12T19:20:04.487Z,16.80
2017-08-12T19:22:32.835Z,16.80
2017-08-12T19:25:01.895Z,16.70
2017-08-12T19:27:30.174Z,16.60
2017-08-12T19:29:58.514Z,16.60
2017-08-12T19:32:26.834Z,16.70
2017-08-12T19:34:55.139Z,16.60
2017-08-12T19:37:23.479Z,16.60
2017-08-12T19:39:51.878Z,16.60
2017-08-12T19:42:20.179Z,16.50
2017-08-12T19:44:48.503Z,16.50
2017-08-12T19:47:16.856Z,16.50
2017-08-12T19:49:45.190Z,16.50
2017-08-12T19:52:13.530Z,16.50
2017-08-12T19:54:41.844Z,16.40
2017-08-12T19:57:10.130Z,16.50
2017-08-12T19:59:38.601Z,16.50
2017-08-12T20:02:07.666Z,16.60
2017-08-12T20:04:35.969Z,16.50
2017-08-12T20:07:04.313Z,16.60
2017-08-12T20:09:32.622Z,16.70
2017-08-12T20:12:01.726Z,16.90
2017-08-12T20:14:30.803Z,16.90
2017-08-12T20:16:59.190Z,16.90
2017-08-12T20:19:27.519Z,16.90
2017-08-12T20:21:55.873Z,17.00
2017-08-12T20:24:24.170Z,17.00
2017-08-12T20:26:52.481Z,17.10
2017-08-12T20:29:20.819Z,17.10
2017-08-12T20:31:49.127Z,17.10
2017-08-12T20:34:17.464Z,17.10
2017-08-12T20:36:45.831Z,17.20
2017-08-12T20:39:14.148Z,17.20
2017-08-12T20:41:42.467Z,17.30
2017-08-12T20:44:10.840Z,17.30
2017-08-12T20:46:39.170Z,17.30
2017-08-12T20:49:07.478Z,17.30
2017-08-12T20:51:35.811Z,17.30
2017-08-12T20:54:04.118Z,17.30
2017-08-12T20:56:32.439Z,17.30
2017-08-12T20:59:01.535Z,17.30
2017-08-12T21:01:29.894Z,17.30
2017-08-12T21:03:58.175Z,17.40
2017-08-12T21:06:27.289Z,17.20
2017-08-12T21:08:55.639Z,17.20
2017-08-12T21:11:24.707Z,17.20
2017-08-12T21:13:53.057Z,17.20
2017-08-12T21:16:21.383Z,17.20
2017-08-12T21:18:50.524Z,17.20
2017-08-12T21:21:18.835Z,17.10
2017-08-12T21:23:47.110Z,17.10
2017-08-12T21:26:15.470Z,17.10
2017-08-12T21:28:43.797Z,17.10
2017-08-12T21:31:12.193Z,17.00
2017-08-12T21:33:40.508Z,16.90
2017-08-12T21:36:08.830Z,16.90
2017-08-12T21:38:37.153Z,16.90
2017-08-12T21:41:05.452Z,16.90
2017-08-12T21:43:33.784Z,16.80
2017-08-12T21:46:02.818Z,16.80
2017-08-12T21:48:31.159Z,16.80
2017-08-12T21:50:59.433Z,16.80
2017-08-12T21:53:28.467Z,16.80
2017-08-12T21:55:56.824Z,16.80
2017-08-12T21:58:25.160Z,16.80
2017-08-12T22:00:53.510Z,16.70
2017-08-12T22:03:21.816Z,16.70
2017-08-12T22:05:50.864Z,16.60
2017-08-12T22:08:19.231Z,16.50
2017-08-12T22:10:47.552Z,16.60
2017-08-12T22:13:15.850Z,16.60
2017-08-12T22:15:44.947Z,16.60
2017-08-12T22:18:13.256Z,16.50
2017-08-12T22:20:41.571Z,16.60
2017-08-12T22:23:10.819Z,16.50
2017-08-12T22:25:39.117Z,16.40
2017-08-12T22:28:07.432Z,16.40
2017-08-12T22:30:35.743Z,16.40
2017-08-12T22:33:04.066Z,16.30
2017-08-12T22:35:33.195Z,16.20
2017-08-12T22:38:01.486Z,16.20
2017-08-12T22:40:29.830Z,16.20
2017-08-12T22:42:58.910Z,16.00
2017-08-12T22:45:27.235Z,16.00
2017-08-12T22:47:55.535Z,16.00
2017-08-12T22:50:23.892Z,16.00
2017-08-12T22:52:52.219Z,16.00
2017-08-12T22:55:20.510Z,16.00
2017-08-12T22:57:48.866Z,15.90
2017-08-12T23:00:17.963Z,15.90
2017-08-12T23:02:47.091Z,15.90
2017-08-12T23:05:15.412Z,15.90
2017-08-12T23:07:43.740Z,15.90
2017-08-12T23:10:12.053Z,15.90
2017-08-12T23:12:40.495Z,15.90
2017-08-12T23:15:09.563Z,15.90
2017-08-12T23:17:37.859Z,15.90
2017-08-12T23:20:06.971Z,15.90
2017-08-12T23:22:35.270Z,15.80
2017-08-12T23:25:03.603Z,15.90
2017-08-12T23:27:31.928Z,15.90
2017-08-12T23:30:00.340Z,16.00
2017-08-12T23:32:28.647Z,16.10
2017-08-12T23:34:56.930Z,16.10
2017-08-12T23:37:25.267Z,16.20
2017-08-12T23:39:53.587Z,16.30
2017-08-12T23:42:21.927Z,16.40
2017-08-12T23:44:50.227Z,16.40
2017-08-12T23:47:18.558Z,16.50
2017-08-12T23:49:46.908Z,16.60
2017-08-12T23:52:15.288Z,16.60
2017-08-12T23:54:43.646Z,16.70
2017-08-12T23:57:11.975Z,16.70
2017-08-12T23:59:40.286Z,16.70
